createdAt,value
2022-12-17T00:00:38.850Z,46.05
2022-12-17T00:01:59.985Z,51.83
2022-12-17T00:03:21.163Z,45.47
2022-12-17T00:04:42.311Z,45.13
2022-12-17T00:06:03.901Z,42.20
2022-12-17T00:07:24.969Z,47.55
2022-12-17T00:08:46.092Z,49.72
2022-12-17T00:10:07.172Z,47.20
2022-12-17T00:11:28.118Z,48.80
2022-12-17T00:12:49.010Z,42.65
2022-12-17T00:15:31.815Z,41.30
2022-12-17T00:16:52.857Z,43.22
2022-12-17T00:18:25.060Z,45.55
2022-12-17T00:19:46.042Z,54.38
2022-12-17T00:22:32.776Z,41.47
2022-12-17T00:23:53.939Z,46.58
2022-12-17T00:25:17.776Z,45.60
2022-12-17T00:26:40.185Z,45.17
2022-12-17T00:28:01.350Z,49.83
2022-12-17T00:29:25.234Z,40.65
2022-12-17T00:30:46.547Z,43.03
2022-12-17T00:32:07.766Z,42.50
2022-12-17T00:33:31.566Z,46.42
2022-12-17T00:34:53.082Z,41.35
2022-12-17T00:36:14.806Z,39.80
2022-12-17T00:37:35.941Z,43.90
2022-12-17T00:38:57.729Z,42.08
2022-12-17T00:40:20.521Z,47.53
2022-12-17T00:41:41.914Z,40.03
2022-12-17T00:43:03.137Z,43.03
2022-12-17T00:44:24.138Z,40.70
2022-12-17T00:45:45.242Z,44.13
2022-12-17T00:47:06.454Z,45.10
2022-12-17T00:48:27.589Z,39.05
2022-12-17T00:49:48.710Z,43.63
2022-12-17T00:51:09.838Z,46.67
2022-12-17T00:52:31.054Z,47.15
2022-12-17T00:53:52.468Z,43.22
2022-12-17T00:55:13.596Z,40.53
2022-12-17T00:56:34.979Z,44.45
2022-12-17T00:57:56.272Z,45.60
2022-12-17T00:59:17.745Z,39.95
2022-12-17T01:00:38.925Z,42.40
2022-12-17T01:01:59.993Z,43.70
2022-12-17T01:03:29.376Z,46.65
2022-12-17T01:04:50.624Z,43.33
2022-12-17T01:06:11.585Z,42.58
2022-12-17T01:07:33.146Z,48.72
2022-12-17T01:10:20.103Z,44.17
2022-12-17T01:11:41.703Z,36.75
2022-12-17T01:13:03.330Z,43.25
2022-12-17T01:14:24.731Z,44.85
2022-12-17T01:15:45.735Z,41.50
2022-12-17T01:17:07.555Z,38.78
2022-12-17T01:18:28.802Z,41.03
2022-12-17T01:19:50.302Z,44.30
2022-12-17T01:21:16.036Z,43.25
2022-12-17T01:22:37.043Z,32.97
2022-12-17T01:23:58.307Z,38.13
2022-12-17T01:25:19.535Z,47.78
2022-12-17T01:26:41.157Z,45.90
2022-12-17T01:28:02.254Z,47.17
2022-12-17T01:29:23.741Z,42.15
2022-12-17T01:30:44.836Z,44.70
2022-12-17T01:32:06.008Z,39.83
2022-12-17T01:33:28.163Z,44.20
2022-12-17T01:34:49.713Z,42.08
2022-12-17T01:36:17.696Z,45.03
2022-12-17T01:37:38.850Z,42.30
2022-12-17T01:39:00.093Z,38.50
2022-12-17T01:40:21.350Z,41.33
2022-12-17T01:41:42.603Z,44.72
2022-12-17T01:43:05.619Z,38.25
2022-12-17T01:44:57.567Z,38.22
2022-12-17T01:46:18.975Z,43.58
2022-12-17T01:47:40.384Z,35.92
2022-12-17T01:49:04.995Z,39.78
2022-12-17T01:50:26.895Z,44.47
2022-12-17T01:51:49.101Z,44.28
2022-12-17T01:53:14.478Z,46.33
2022-12-17T01:54:36.344Z,37.15
2022-12-17T01:55:57.673Z,45.92
2022-12-17T01:57:19.537Z,42.78
2022-12-17T01:58:41.424Z,39.40
2022-12-17T02:00:09.376Z,36.17
2022-12-17T02:01:37.206Z,39.92
2022-12-17T02:02:58.631Z,37.92
2022-12-17T02:04:20.154Z,40.72
2022-12-17T02:05:48.888Z,40.28
2022-12-17T02:07:37.109Z,40.78
2022-12-17T02:09:16.358Z,35.05
2022-12-17T02:10:40.425Z,41.83
2022-12-17T02:12:20.678Z,35.95
2022-12-17T02:13:47.317Z,38.67
2022-12-17T02:15:30.418Z,33.80
2022-12-17T02:17:00.584Z,38.55
2022-12-17T02:18:29.232Z,47.60
2022-12-17T02:20:15.822Z,46.92
2022-12-17T02:21:38.644Z,45.15
2022-12-17T02:23:17.978Z,44.47
2022-12-17T02:24:52.241Z,32.17
2022-12-17T02:26:23.112Z,38.28
2022-12-17T02:27:44.928Z,42.97
2022-12-17T02:29:09.162Z,34.22
2022-12-17T02:30:30.362Z,36.63
2022-12-17T02:31:52.750Z,36.33
2022-12-17T02:33:14.792Z,35.63
2022-12-17T02:34:39.572Z,48.10
2022-12-17T02:36:11.128Z,42.25
2022-12-17T02:37:32.532Z,32.67
2022-12-17T02:38:53.879Z,36.10
2022-12-17T02:40:19.082Z,47.05
2022-12-17T02:41:48.173Z,34.45
2022-12-17T02:43:11.681Z,35.30
2022-12-17T02:44:35.969Z,40.45
2022-12-17T02:46:17.521Z,35.83
2022-12-17T02:47:40.096Z,35.50
2022-12-17T02:49:02.008Z,36.05
2022-12-17T02:50:26.494Z,31.38
2022-12-17T02:51:49.211Z,37.85
2022-12-17T02:53:11.043Z,32.15
2022-12-17T02:54:32.452Z,37.58
2022-12-17T02:55:54.967Z,35.60
2022-12-17T02:57:16.813Z,33.13
2022-12-17T02:58:39.616Z,41.90
2022-12-17T03:00:01.173Z,38.60
2022-12-17T03:01:23.269Z,38.63
2022-12-17T03:02:44.534Z,40.40
2022-12-17T03:04:05.784Z,43.30
2022-12-17T03:05:44.699Z,41.00
2022-12-17T03:07:06.773Z,41.33
2022-12-17T03:08:27.843Z,38.38
2022-12-17T03:09:50.790Z,36.45
2022-12-17T03:11:12.183Z,37.40
2022-12-17T03:12:33.661Z,39.25
2022-12-17T03:13:54.699Z,35.75
2022-12-17T03:15:16.020Z,38.72
2022-12-17T03:16:38.337Z,39.75
2022-12-17T03:17:59.635Z,37.70
2022-12-17T03:19:21.493Z,35.15
2022-12-17T03:20:42.889Z,37.40
2022-12-17T03:22:04.437Z,46.25
2022-12-17T03:23:29.232Z,41.10
2022-12-17T03:24:50.544Z,31.65
2022-12-17T03:26:12.365Z,35.95
2022-12-17T03:27:34.261Z,43.78
2022-12-17T03:28:55.974Z,36.90
2022-12-17T03:30:17.470Z,49.15
2022-12-17T03:31:39.465Z,37.08
2022-12-17T03:33:01.058Z,38.30
2022-12-17T03:34:22.392Z,38.95
2022-12-17T03:35:44.527Z,39.05
2022-12-17T03:37:05.548Z,35.97
2022-12-17T03:38:29.035Z,38.97
2022-12-17T03:39:50.344Z,43.65
2022-12-17T03:41:11.731Z,32.35
2022-12-17T03:42:32.791Z,30.67
2022-12-17T03:43:54.105Z,34.35
2022-12-17T03:45:15.798Z,37.88
2022-12-17T03:46:36.918Z,43.88
2022-12-17T03:47:58.443Z,29.58
2022-12-17T03:49:19.699Z,35.70
2022-12-17T03:50:40.767Z,42.30
2022-12-17T03:52:02.159Z,39.25
2022-12-17T03:53:24.005Z,33.63
2022-12-17T03:54:45.227Z,36.78
2022-12-17T03:56:06.310Z,32.60
2022-12-17T03:57:27.602Z,32.30
2022-12-17T03:58:48.911Z,31.15
2022-12-17T04:00:10.097Z,44.08
2022-12-17T04:01:34.434Z,35.35
2022-12-17T04:02:55.783Z,40.58
2022-12-17T04:04:17.590Z,40.38
2022-12-17T04:05:39.162Z,36.00
2022-12-17T04:07:00.601Z,32.97
2022-12-17T04:08:22.034Z,35.95
2022-12-17T04:09:43.224Z,33.72
2022-12-17T04:11:04.448Z,39.03
2022-12-17T04:12:26.045Z,42.45
2022-12-17T04:13:47.719Z,37.92
2022-12-17T04:15:10.127Z,34.50
2022-12-17T04:16:31.640Z,41.97
2022-12-17T04:17:52.779Z,29.35
2022-12-17T04:19:14.236Z,42.20
2022-12-17T04:20:35.508Z,37.13
2022-12-17T04:21:56.743Z,32.95
2022-12-17T04:23:17.953Z,37.75
2022-12-17T04:24:39.319Z,37.78
2022-12-17T04:26:00.462Z,38.50
2022-12-17T04:27:21.798Z,35.55
2022-12-17T04:28:42.956Z,40.40
2022-12-17T04:30:04.171Z,33.78
2022-12-17T04:31:25.550Z,37.65
2022-12-17T04:32:46.767Z,37.47
2022-12-17T04:34:08.044Z,36.58
2022-12-17T04:35:29.148Z,42.58
2022-12-17T04:36:50.184Z,39.15
2022-12-17T04:38:11.231Z,33.25
2022-12-17T04:39:32.679Z,38.38
2022-12-17T04:40:54.085Z,34.35
2022-12-17T04:42:15.405Z,34.33
2022-12-17T04:43:36.769Z,34.13
2022-12-17T04:44:57.952Z,47.35
2022-12-17T04:46:19.117Z,38.10
2022-12-17T04:47:40.260Z,40.13
2022-12-17T04:49:01.876Z,40.30
2022-12-17T04:50:23.584Z,39.92
2022-12-17T04:51:45.472Z,32.78
2022-12-17T04:53:06.994Z,38.40
2022-12-17T04:54:27.994Z,44.00
2022-12-17T04:55:49.161Z,37.53
2022-12-17T04:57:10.541Z,39.78
2022-12-17T04:58:31.669Z,38.33
2022-12-17T04:59:52.600Z,46.63
2022-12-17T05:01:14.174Z,38.03
2022-12-17T05:02:39.535Z,39.53
2022-12-17T05:04:03.548Z,39.60
2022-12-17T05:05:24.822Z,37.28
2022-12-17T05:06:45.908Z,37.88
2022-12-17T05:08:07.245Z,37.42
2022-12-17T05:09:28.733Z,29.95
2022-12-17T05:10:50.204Z,39.65
2022-12-17T05:12:11.164Z,37.22
2022-12-17T05:14:53.937Z,28.55
2022-12-17T05:16:15.568Z,32.35
2022-12-17T05:17:36.910Z,33.45
2022-12-17T05:18:58.301Z,24.73
2022-12-17T05:20:19.431Z,28.83
2022-12-17T05:21:40.625Z,36.50
2022-12-17T05:23:01.919Z,38.08
2022-12-17T05:24:23.270Z,30.60
2022-12-17T05:25:44.212Z,26.30
2022-12-17T05:27:05.485Z,32.40
2022-12-17T05:28:27.145Z,26.08
2022-12-17T05:29:48.403Z,39.30
2022-12-17T05:31:13.613Z,35.50
2022-12-17T05:32:35.400Z,38.75
2022-12-17T05:33:56.744Z,25.08
2022-12-17T05:35:18.148Z,32.17
2022-12-17T05:36:56.550Z,35.65
2022-12-17T05:38:26.156Z,35.55
2022-12-17T05:39:47.247Z,37.72
2022-12-17T05:41:08.723Z,36.70
2022-12-17T05:42:30.020Z,37.63
2022-12-17T05:43:51.952Z,36.53
2022-12-17T05:45:13.127Z,33.83
2022-12-17T05:46:34.319Z,33.05
2022-12-17T05:47:55.568Z,25.75
2022-12-17T05:49:16.918Z,27.73
2022-12-17T05:50:38.602Z,28.77
2022-12-17T05:51:59.904Z,26.13
2022-12-17T05:53:25.046Z,25.17
2022-12-17T05:54:46.663Z,30.85
2022-12-17T05:56:09.136Z,31.90
2022-12-17T05:57:30.546Z,29.02
2022-12-17T05:58:51.798Z,33.55
2022-12-17T06:00:13.031Z,29.85
2022-12-17T06:01:34.629Z,27.42
2022-12-17T06:02:56.087Z,30.50
2022-12-17T06:04:17.555Z,34.00
2022-12-17T06:05:38.651Z,25.15
2022-12-17T06:06:59.749Z,25.58
2022-12-17T06:08:25.548Z,31.65
2022-12-17T06:09:46.615Z,28.77
2022-12-17T06:11:07.683Z,26.30
2022-12-17T06:12:28.677Z,28.70
2022-12-17T06:13:49.809Z,24.67
2022-12-17T06:15:11.268Z,26.50
2022-12-17T06:16:32.315Z,26.23
2022-12-17T06:17:53.367Z,35.72
2022-12-17T06:19:14.702Z,24.17
2022-12-17T06:20:35.973Z,25.60
2022-12-17T06:21:57.201Z,25.25
2022-12-17T06:23:23.271Z,28.33
2022-12-17T06:24:46.311Z,26.95
2022-12-17T06:26:07.569Z,27.92
2022-12-17T06:27:28.645Z,28.45
2022-12-17T06:28:50.693Z,32.65
2022-12-17T06:30:17.015Z,22.00
2022-12-17T06:31:39.946Z,31.30
2022-12-17T06:33:01.358Z,23.80
2022-12-17T06:34:22.760Z,31.17
2022-12-17T06:35:44.109Z,24.98
2022-12-17T06:37:05.058Z,26.77
2022-12-17T06:38:26.379Z,23.92
2022-12-17T06:39:47.728Z,29.73
2022-12-17T06:41:10.312Z,36.65
2022-12-17T06:42:31.314Z,26.25
2022-12-17T06:43:52.249Z,30.75
2022-12-17T06:46:34.752Z,26.65
2022-12-17T06:47:56.283Z,24.80
2022-12-17T06:49:17.699Z,25.85
2022-12-17T06:50:38.971Z,32.25
2022-12-17T06:52:00.112Z,26.42
2022-12-17T06:53:23.146Z,23.67
2022-12-17T06:54:44.393Z,27.90
2022-12-17T06:56:05.793Z,24.88
2022-12-17T06:57:26.976Z,31.67
2022-12-17T06:58:48.528Z,30.33
2022-12-17T07:00:09.810Z,27.33
2022-12-17T07:01:31.912Z,26.02
2022-12-17T07:02:53.192Z,29.55
2022-12-17T07:04:14.441Z,28.30
2022-12-17T07:05:36.127Z,27.25
2022-12-17T07:06:57.566Z,27.40
2022-12-17T07:08:19.129Z,29.27
2022-12-17T07:09:40.359Z,35.22
2022-12-17T07:11:01.760Z,33.92
2022-12-17T07:12:23.166Z,29.25
2022-12-17T07:13:48.983Z,27.90
2022-12-17T07:15:10.082Z,34.40
2022-12-17T07:16:31.493Z,28.13
2022-12-17T07:17:52.839Z,34.63
2022-12-17T07:19:14.259Z,28.45
2022-12-17T07:20:35.333Z,29.38
2022-12-17T07:21:56.832Z,34.60
2022-12-17T07:23:18.273Z,28.90
2022-12-17T07:24:39.546Z,24.05
2022-12-17T07:26:01.254Z,36.15
2022-12-17T07:27:22.733Z,34.67
2022-12-17T07:28:44.675Z,25.08
2022-12-17T07:30:05.815Z,31.95
2022-12-17T07:31:27.284Z,31.48
2022-12-17T07:32:48.573Z,26.88
2022-12-17T07:34:09.740Z,31.40
2022-12-17T07:35:31.371Z,33.33
2022-12-17T07:36:52.533Z,31.05
2022-12-17T07:38:18.217Z,30.45
2022-12-17T07:39:41.107Z,30.77
2022-12-17T07:41:02.714Z,34.50
2022-12-17T07:42:23.879Z,34.20
2022-12-17T07:43:48.268Z,29.38
2022-12-17T07:45:27.632Z,31.27
2022-12-17T07:46:48.743Z,29.80
2022-12-17T07:48:11.299Z,34.55
2022-12-17T07:49:32.322Z,27.63
2022-12-17T07:50:53.459Z,28.65
2022-12-17T07:52:14.690Z,32.70
2022-12-17T07:53:36.343Z,27.27
2022-12-17T07:54:57.817Z,28.45
2022-12-17T07:56:18.775Z,29.77
2022-12-17T08:00:22.602Z,27.80
2022-12-17T08:01:44.595Z,32.20
2022-12-17T08:03:06.297Z,30.42
2022-12-17T08:04:27.714Z,34.85
2022-12-17T08:05:49.114Z,28.70
2022-12-17T08:07:13.992Z,31.90
2022-12-17T08:08:35.703Z,28.98
2022-12-17T08:09:57.155Z,30.00
2022-12-17T08:11:18.178Z,30.25
2022-12-17T08:12:39.265Z,36.25
2022-12-17T08:14:00.556Z,36.85
2022-12-17T08:15:22.248Z,37.13
2022-12-17T08:16:43.326Z,34.30
2022-12-17T08:18:04.459Z,34.90
2022-12-17T08:19:27.011Z,32.10
2022-12-17T08:20:47.913Z,34.20
2022-12-17T08:23:30.788Z,28.45
2022-12-17T08:24:52.055Z,25.48
2022-12-17T08:26:13.138Z,28.67
2022-12-17T08:27:34.243Z,23.52
2022-12-17T08:28:55.809Z,23.13
2022-12-17T08:30:17.946Z,32.38
2022-12-17T08:31:39.432Z,24.30
2022-12-17T08:33:00.813Z,36.55
2022-12-17T08:34:22.347Z,27.73
2022-12-17T08:35:43.501Z,25.20
2022-12-17T08:37:04.692Z,24.45
2022-12-17T08:38:25.925Z,26.48
2022-12-17T08:39:47.075Z,25.85
2022-12-17T08:41:08.734Z,35.15
2022-12-17T08:42:29.777Z,31.55
2022-12-17T08:43:51.228Z,33.58
2022-12-17T08:45:12.312Z,28.00
2022-12-17T08:46:33.461Z,32.00
2022-12-17T08:47:57.914Z,24.90
2022-12-17T08:49:21.588Z,25.48
2022-12-17T08:50:42.780Z,33.15
2022-12-17T08:52:03.988Z,35.20
2022-12-17T08:53:25.403Z,29.90
2022-12-17T08:54:46.390Z,34.28
2022-12-17T08:56:07.929Z,31.10
2022-12-17T08:57:32.595Z,30.17
2022-12-17T08:58:58.912Z,30.90
2022-12-17T09:00:20.769Z,33.40
2022-12-17T09:01:42.389Z,42.80
2022-12-17T09:03:04.268Z,33.15
2022-12-17T09:04:25.784Z,38.15
2022-12-17T09:06:06.746Z,32.47
2022-12-17T09:07:28.162Z,37.20
2022-12-17T09:08:49.588Z,33.03
2022-12-17T09:10:11.062Z,32.25
2022-12-17T09:11:32.789Z,32.00
2022-12-17T09:12:53.748Z,29.60
2022-12-17T09:16:57.176Z,24.05
2022-12-17T09:18:18.591Z,30.00
2022-12-17T09:19:39.647Z,37.42
2022-12-17T09:21:00.890Z,35.83
2022-12-17T09:22:22.008Z,30.77
2022-12-17T09:23:42.993Z,27.60
2022-12-17T09:26:25.541Z,26.90
2022-12-17T09:27:46.830Z,27.13
2022-12-17T09:29:08.039Z,32.15
2022-12-17T09:30:29.658Z,29.58
2022-12-17T09:31:51.726Z,29.02
2022-12-17T09:33:13.256Z,29.40
2022-12-17T09:34:34.433Z,31.67
2022-12-17T09:35:59.108Z,27.23
2022-12-17T09:37:20.654Z,32.53
2022-12-17T09:38:42.116Z,31.33
2022-12-17T09:40:03.568Z,31.65
2022-12-17T09:41:35.609Z,34.53
2022-12-17T09:43:17.723Z,30.52
2022-12-17T09:45:22.630Z,35.72
2022-12-17T09:46:49.011Z,28.15
2022-12-17T09:48:45.697Z,36.50
2022-12-17T09:50:07.112Z,33.60
2022-12-17T09:51:43.351Z,26.23
2022-12-17T09:53:04.752Z,31.25
2022-12-17T09:54:39.990Z,31.60
2022-12-17T09:56:11.223Z,31.77
2022-12-17T09:57:35.963Z,32.20
2022-12-17T09:58:59.315Z,34.78
2022-12-17T10:00:32.446Z,33.42
2022-12-17T10:01:54.729Z,34.00
2022-12-17T10:03:15.983Z,33.75
2022-12-17T10:04:47.722Z,33.40
2022-12-17T10:06:09.444Z,32.90
2022-12-17T10:07:34.908Z,34.42
2022-12-17T10:08:56.771Z,33.55
2022-12-17T10:10:25.834Z,34.00
2022-12-17T10:11:48.544Z,31.50
2022-12-17T10:13:09.878Z,37.20
2022-12-17T10:14:41.857Z,33.38
2022-12-17T10:16:03.063Z,35.42
2022-12-17T10:17:27.915Z,36.78
2022-12-17T10:18:50.310Z,33.63
2022-12-17T10:20:14.090Z,33.58
2022-12-17T10:21:37.352Z,33.97
2022-12-17T10:23:07.150Z,33.42
2022-12-17T10:24:29.632Z,22.50
2022-12-17T10:25:51.407Z,28.08
2022-12-17T10:27:13.301Z,26.77
2022-12-17T10:28:37.431Z,24.50
2022-12-17T10:30:00.530Z,36.45
2022-12-17T10:31:28.431Z,29.50
2022-12-17T10:32:49.821Z,26.33
2022-12-17T10:34:14.917Z,31.67
2022-12-17T10:35:40.285Z,30.15
2022-12-17T10:37:08.132Z,30.40
2022-12-17T10:38:45.063Z,27.48
2022-12-17T10:40:19.514Z,30.85
2022-12-17T10:41:49.617Z,26.17
2022-12-17T10:43:10.623Z,24.23
2022-12-17T10:44:53.169Z,27.25
2022-12-17T10:46:16.341Z,34.13
2022-12-17T10:47:47.289Z,32.53
2022-12-17T10:49:11.317Z,23.05
2022-12-17T10:50:36.255Z,31.10
2022-12-17T10:51:57.559Z,24.70
2022-12-17T10:53:19.578Z,29.40
2022-12-17T10:54:48.775Z,25.90
2022-12-17T10:56:15.352Z,27.98
2022-12-17T10:57:52.772Z,26.83
2022-12-17T10:59:14.609Z,36.55
2022-12-17T11:00:50.964Z,31.45
2022-12-17T11:02:16.843Z,28.05
2022-12-17T11:03:55.053Z,32.08
2022-12-17T11:05:17.341Z,30.17
2022-12-17T11:06:48.724Z,29.58
2022-12-17T11:08:09.979Z,27.08
2022-12-17T11:09:50.740Z,31.50
2022-12-17T11:11:12.298Z,27.52
2022-12-17T11:12:35.708Z,31.67
2022-12-17T11:14:01.517Z,27.60
2022-12-17T11:15:45.020Z,30.75
2022-12-17T11:17:13.108Z,30.10
2022-12-17T11:19:14.090Z,37.05
2022-12-17T11:20:45.254Z,39.15
2022-12-17T11:23:36.565Z,33.72
2022-12-17T11:25:16.352Z,40.17
2022-12-17T11:26:38.558Z,35.88
2022-12-17T11:28:13.276Z,42.80
2022-12-17T11:29:34.312Z,40.28
2022-12-17T11:31:09.015Z,45.75
2022-12-17T11:32:49.204Z,36.22
2022-12-17T11:34:40.275Z,42.47
2022-12-17T11:36:05.250Z,34.30
2022-12-17T11:37:32.439Z,38.00
2022-12-17T11:39:08.329Z,38.10
2022-12-17T11:40:47.010Z,37.60
2022-12-17T11:42:34.460Z,45.63
2022-12-17T11:44:20.613Z,41.65
2022-12-17T11:45:54.124Z,48.85
2022-12-17T11:47:37.662Z,37.33
2022-12-17T11:49:10.357Z,50.03
2022-12-17T11:50:56.908Z,44.97
2022-12-17T11:52:31.493Z,38.22
2022-12-17T11:54:19.396Z,31.73
2022-12-17T11:56:01.728Z,40.50
2022-12-17T11:57:42.407Z,31.67
2022-12-17T11:59:10.576Z,27.70
2022-12-17T12:00:37.971Z,31.73
2022-12-17T12:02:08.661Z,35.40
2022-12-17T12:03:45.151Z,30.48
2022-12-17T12:05:27.127Z,33.83
2022-12-17T12:07:11.020Z,35.55
2022-12-17T12:08:55.933Z,35.00
2022-12-17T12:10:33.281Z,36.67
2022-12-17T12:11:59.833Z,38.22
2022-12-17T12:13:33.297Z,39.00
2022-12-17T12:15:00.373Z,34.35
2022-12-17T12:16:43.868Z,38.67
2022-12-17T12:18:14.091Z,38.45
2022-12-17T12:20:00.008Z,40.90
2022-12-17T12:21:34.297Z,45.92
2022-12-17T12:23:29.245Z,51.25
2022-12-17T12:25:24.929Z,44.80
2022-12-17T12:26:52.602Z,49.97
2022-12-17T12:28:22.554Z,43.17
2022-12-17T12:29:58.847Z,44.97
2022-12-17T12:31:23.361Z,41.35
2022-12-17T12:33:12.287Z,45.25
2022-12-17T12:34:41.940Z,41.92
2022-12-17T12:36:03.394Z,40.70
2022-12-17T12:37:25.617Z,39.50
2022-12-17T12:38:51.547Z,31.92
2022-12-17T12:40:18.182Z,41.65
2022-12-17T12:42:00.973Z,45.40
2022-12-17T12:43:45.086Z,39.17
2022-12-17T12:45:14.027Z,33.38
2022-12-17T12:46:42.735Z,43.35
2022-12-17T12:48:26.784Z,36.35
2022-12-17T12:50:00.739Z,32.00
2022-12-17T12:51:39.337Z,32.85
2022-12-17T12:53:00.718Z,36.20
2022-12-17T12:54:41.419Z,40.55
2022-12-17T12:56:02.885Z,31.88
2022-12-17T12:57:26.333Z,34.97
2022-12-17T12:58:52.184Z,38.50
2022-12-17T13:00:13.327Z,42.50
2022-12-17T13:01:34.732Z,45.17
2022-12-17T13:03:13.216Z,38.67
2022-12-17T13:04:53.315Z,37.28
2022-12-17T13:05:55.977Z,30.80
2022-12-17T13:06:58.699Z,35.10
2022-12-17T13:08:23.238Z,30.33
2022-12-17T13:09:34.205Z,35.85
2022-12-17T13:10:38.200Z,31.42
2022-12-17T13:11:42.752Z,35.40
2022-12-17T13:12:46.702Z,36.20
2022-12-17T13:13:56.153Z,48.38
2022-12-17T13:15:05.776Z,42.15
2022-12-17T13:16:31.223Z,44.38
2022-12-17T13:17:36.962Z,48.92
2022-12-17T13:18:40.936Z,37.30
2022-12-17T13:19:47.472Z,37.80
2022-12-17T13:21:04.458Z,43.15
2022-12-17T13:22:30.771Z,46.35
2022-12-17T13:23:39.259Z,41.13
2022-12-17T13:24:49.269Z,39.95
2022-12-17T13:26:24.009Z,37.03
2022-12-17T13:27:35.842Z,39.25
2022-12-17T13:28:39.049Z,33.15
2022-12-17T13:29:42.269Z,38.20
2022-12-17T13:30:45.707Z,31.23
2022-12-17T13:32:06.390Z,32.45
2022-12-17T13:33:27.020Z,39.25
2022-12-17T13:34:36.894Z,44.67
2022-12-17T13:35:47.890Z,32.33
2022-12-17T13:37:10.793Z,33.88
2022-12-17T13:38:21.745Z,41.40
2022-12-17T13:40:47.248Z,30.52
2022-12-17T13:41:53.875Z,31.00
2022-12-17T13:42:56.652Z,32.92
2022-12-17T13:44:20.045Z,36.63
2022-12-17T13:45:24.664Z,34.10
2022-12-17T13:46:29.877Z,36.15
2022-12-17T13:47:35.172Z,40.33
2022-12-17T13:48:38.257Z,42.92
2022-12-17T13:49:41.066Z,36.25
2022-12-17T13:50:57.310Z,39.10
2022-12-17T13:52:11.160Z,39.83
2022-12-17T13:53:15.456Z,36.25
2022-12-17T13:54:19.481Z,36.67
2022-12-17T13:55:25.661Z,38.10
2022-12-17T13:56:32.234Z,35.33
2022-12-17T13:57:37.733Z,37.97
2022-12-17T13:58:40.542Z,45.97
2022-12-17T13:59:54.131Z,43.80
2022-12-17T14:01:08.473Z,45.22
2022-12-17T14:02:44.088Z,48.55
2022-12-17T14:04:06.275Z,44.75
2022-12-17T14:05:26.339Z,39.65
2022-12-17T14:06:37.563Z,43.20
2022-12-17T14:07:40.951Z,53.35
2022-12-17T14:08:43.935Z,54.60
2022-12-17T14:09:46.933Z,45.83
2022-12-17T14:11:13.725Z,39.65
2022-12-17T14:12:23.922Z,47.45
2022-12-17T14:13:26.555Z,49.53
2022-12-17T14:14:33.919Z,45.08
2022-12-17T14:15:36.878Z,47.63
2022-12-17T14:16:43.805Z,41.35
2022-12-17T14:17:50.565Z,36.72
2022-12-17T14:18:57.055Z,42.22
2022-12-17T14:20:04.786Z,37.35
2022-12-17T14:21:09.162Z,39.38
2022-12-17T14:22:23.317Z,30.77
2022-12-17T14:23:30.416Z,37.80
2022-12-17T14:24:33.241Z,35.22
2022-12-17T14:25:38.049Z,35.92
2022-12-17T14:26:55.736Z,32.85
2022-12-17T14:28:00.463Z,33.10
2022-12-17T14:29:12.958Z,34.35
2022-12-17T14:30:46.166Z,39.20
2022-12-17T14:31:58.503Z,30.88
2022-12-17T14:33:01.253Z,37.08
2022-12-17T14:34:11.120Z,39.88
2022-12-17T14:35:30.792Z,34.92
2022-12-17T14:36:38.414Z,38.05
2022-12-17T14:37:41.240Z,39.25
2022-12-17T14:39:01.204Z,35.40
2022-12-17T14:40:05.997Z,31.40
2022-12-17T14:41:32.999Z,38.38
2022-12-17T14:42:36.315Z,35.58
2022-12-17T14:43:38.990Z,41.63
2022-12-17T14:44:50.565Z,42.38
2022-12-17T14:46:17.002Z,37.05
2022-12-17T14:47:31.262Z,41.95
2022-12-17T14:48:53.002Z,40.33
2022-12-17T14:50:10.449Z,48.60
2022-12-17T14:51:39.404Z,52.65
2022-12-17T14:52:50.455Z,46.38
2022-12-17T14:53:53.135Z,43.90
2022-12-17T14:54:55.835Z,43.45
2022-12-17T14:55:59.546Z,36.00
2022-12-17T14:57:05.971Z,46.03
2022-12-17T14:58:12.988Z,44.72
2022-12-17T14:59:34.936Z,55.65
2022-12-17T15:00:55.851Z,47.53
2022-12-17T15:02:03.845Z,37.08
2022-12-17T15:03:09.592Z,35.95
2022-12-17T15:04:12.497Z,36.72
2022-12-17T15:05:16.279Z,38.00
2022-12-17T15:06:22.683Z,42.20
2022-12-17T15:07:27.602Z,45.13
2022-12-17T15:08:33.744Z,37.08
2022-12-17T15:09:37.794Z,28.85
2022-12-17T15:10:40.717Z,32.13
2022-12-17T15:11:43.536Z,34.13
2022-12-17T15:12:46.595Z,34.88
2022-12-17T15:13:54.629Z,36.40
2022-12-17T15:14:59.204Z,38.47
2022-12-17T15:16:01.964Z,37.67
2022-12-17T15:17:06.064Z,30.58
2022-12-17T15:18:12.227Z,35.38
2022-12-17T15:19:15.198Z,38.35
2022-12-17T15:20:20.629Z,41.00
2022-12-17T15:21:25.438Z,42.45
2022-12-17T15:22:28.223Z,49.35
2022-12-17T15:23:31.438Z,47.50
2022-12-17T15:24:36.886Z,39.45
2022-12-17T15:25:44.584Z,31.23
2022-12-17T15:26:50.325Z,37.10
2022-12-17T15:27:53.024Z,45.40
2022-12-17T15:28:55.841Z,41.42
2022-12-17T15:29:58.565Z,45.20
2022-12-17T15:31:01.319Z,39.55
2022-12-17T15:32:04.215Z,45.42
2022-12-17T15:33:08.375Z,33.88
2022-12-17T15:34:12.137Z,40.53
2022-12-17T15:35:15.659Z,42.53
2022-12-17T15:36:18.863Z,39.25
2022-12-17T15:37:25.692Z,37.90
2022-12-17T15:38:28.831Z,28.45
2022-12-17T15:39:31.552Z,31.15
2022-12-17T15:40:36.528Z,33.72
2022-12-17T15:41:58.113Z,34.17
2022-12-17T15:43:13.098Z,32.05
2022-12-17T15:44:15.861Z,24.30
2022-12-17T15:45:18.536Z,31.85
2022-12-17T15:46:21.398Z,30.15
2022-12-17T15:47:24.099Z,28.95
2022-12-17T15:48:26.788Z,25.08
2022-12-17T15:49:29.397Z,28.77
2022-12-17T15:50:32.085Z,32.85
2022-12-17T15:51:34.854Z,30.83
2022-12-17T15:52:38.939Z,36.25
2022-12-17T15:53:41.570Z,33.97
2022-12-17T15:54:45.097Z,29.60
2022-12-17T15:55:48.137Z,28.98
2022-12-17T15:56:55.729Z,25.33
2022-12-17T15:57:58.458Z,23.02
2022-12-17T15:59:01.325Z,26.15
2022-12-17T16:00:04.855Z,28.63
2022-12-17T16:01:09.273Z,36.60
2022-12-17T16:02:12.467Z,27.17
2022-12-17T16:03:15.449Z,23.40
2022-12-17T16:04:24.649Z,25.23
2022-12-17T16:05:28.334Z,34.03
2022-12-17T16:06:30.947Z,26.77
2022-12-17T16:07:33.962Z,27.70
2022-12-17T16:08:40.600Z,28.85
2022-12-17T16:09:43.417Z,39.75
2022-12-17T16:10:46.028Z,31.13
2022-12-17T16:11:48.744Z,30.17
2022-12-17T16:12:51.418Z,39.80
2022-12-17T16:13:55.315Z,42.67
2022-12-17T16:14:58.091Z,53.10
2022-12-17T16:16:04.120Z,43.53
2022-12-17T16:17:07.179Z,54.90
2022-12-17T16:18:10.201Z,66.55
2022-12-17T16:19:13.530Z,46.22
2022-12-17T16:20:16.332Z,41.38
2022-12-17T16:21:18.999Z,33.85
2022-12-17T16:22:21.990Z,36.72
2022-12-17T16:23:24.686Z,40.92
2022-12-17T16:24:29.875Z,32.78
2022-12-17T16:25:32.653Z,28.50
2022-12-17T16:26:35.401Z,38.58
2022-12-17T16:27:38.443Z,51.72
2022-12-17T16:28:41.254Z,52.65
2022-12-17T16:29:44.417Z,44.35
2022-12-17T16:30:58.531Z,33.03
2022-12-17T16:32:01.683Z,37.10
2022-12-17T16:33:04.436Z,33.85
2022-12-17T16:34:10.874Z,42.28
2022-12-17T16:35:14.181Z,41.13
2022-12-17T16:36:19.329Z,46.63
2022-12-17T16:37:22.009Z,47.25
2022-12-17T16:38:24.741Z,49.55
2022-12-17T16:39:27.475Z,47.67
2022-12-17T16:40:30.265Z,38.33
2022-12-17T16:41:33.415Z,35.60
2022-12-17T16:42:36.274Z,46.75
2022-12-17T16:43:39.081Z,56.22
2022-12-17T16:44:41.847Z,45.50
2022-12-17T16:45:49.385Z,45.50
2022-12-17T16:46:52.681Z,40.33
2022-12-17T16:47:55.363Z,34.00
2022-12-17T16:49:00.181Z,28.13
2022-12-17T16:50:03.682Z,43.10
2022-12-17T16:51:28.165Z,38.38
2022-12-17T16:52:31.787Z,40.60
2022-12-17T16:53:34.615Z,35.60
2022-12-17T16:54:37.406Z,41.25
2022-12-17T16:55:47.535Z,25.90
2022-12-17T16:56:50.541Z,24.50
2022-12-17T16:57:53.321Z,27.98
2022-12-17T16:58:56.777Z,23.77
2022-12-17T16:59:59.587Z,24.05
2022-12-17T17:01:02.221Z,28.27
2022-12-17T17:02:04.893Z,37.70
2022-12-17T17:03:09.040Z,34.88
2022-12-17T17:04:13.255Z,31.45
2022-12-17T17:05:16.246Z,34.83
2022-12-17T17:06:19.788Z,44.83
2022-12-17T17:07:22.674Z,42.70
2022-12-17T17:08:25.298Z,46.17
2022-12-17T17:09:28.218Z,42.85
2022-12-17T17:10:31.295Z,35.17
2022-12-17T17:11:34.437Z,47.10
2022-12-17T17:12:37.132Z,59.22
2022-12-17T17:13:42.900Z,48.63
2022-12-17T17:14:45.704Z,60.35
2022-12-17T17:15:48.621Z,79.45
2022-12-17T17:16:52.183Z,67.50
2022-12-17T17:18:02.090Z,53.15
2022-12-17T17:19:06.631Z,51.13
2022-12-17T17:20:09.956Z,48.22
2022-12-17T17:21:36.750Z,38.10
2022-12-17T17:22:39.806Z,28.35